Time;durP1;ratioP1;P1;durP2;ratioP2;P2;SDS_P1;SDS_P2;PMS_P1;PMS_P2;Temp;Humidity;BMP_temperature;BMP_pressure;BME280_temperature;BME280_humidity;BME280_pressure;Samples;Min_cycle;Max_cycle;Signal;HPM_P1;HPM_P2
2023/03/06 00:00:30;;;;;;;7.53;2.50;;;;;;;1.94;50.15;99331.00;5093774;28;20432;-58
2023/03/06 00:02:57;;;;;;;7.03;2.75;;;;;;;2.01;49.88;99329.25;5094105;28;20111;-58
2023/03/06 00:05:22;;;;;;;7.97;2.78;;;;;;;2.04;49.92;99336.16;5093695;28;20039;-57
2023/03/06 00:07:48;;;;;;;6.60;2.80;;;;;;;2.08;49.69;99328.38;5092746;28;20036;-58
2023/03/06 00:10:20;;;;;;;7.50;2.80;;;;;;;2.02;50.35;99328.38;5092659;28;20080;-58
2023/03/06 00:12:45;;;;;;;7.23;2.30;;;;;;;2.09;50.11;99332.69;5093781;28;20032;-58
2023/03/06 00:15:12;;;;;;;6.95;2.53;;;;;;;1.96;50.67;99323.25;5092420;28;20617;-58
2023/03/06 00:17:38;;;;;;;9.63;3.00;;;;;;;1.91;50.77;99332.72;5093949;28;20027;-58
2023/03/06 00:20:05;;;;;;;6.13;2.03;;;;;;;1.98;50.76;99334.44;5093723;28;20039;-58
2023/03/06 00:22:31;;;;;;;6.57;2.30;;;;;;;1.97;50.46;99333.59;5093568;28;20494;-58
2023/03/06 00:24:56;;;;;;;5.45;2.15;;;;;;;1.98;50.29;99330.13;5093623;28;20066;-58
2023/03/06 00:27:24;;;;;;;7.78;2.58;;;;;;;1.78;51.73;99337.09;5092580;28;20055;-58
2023/03/06 00:29:57;;;;;;;7.95;2.60;;;;;;;1.85;51.25;99332.78;5093390;28;20036;-58
2023/03/06 00:32:23;;;;;;;7.05;2.30;;;;;;;1.92;50.87;99334.47;5093781;28;20040;-58
2023/03/06 00:34:50;;;;;;;4.28;2.15;;;;;;;1.97;50.78;99328.41;5093619;28;20028;-59
2023/03/06 00:37:16;;;;;;;6.65;2.50;;;;;;;1.97;50.77;99332.72;5093447;28;20036;-58
2023/03/06 00:39:41;;;;;;;8.85;2.03;;;;;;;1.93;51.24;99328.44;5091995;28;20406;-57
2023/03/06 00:42:07;;;;;;;5.95;2.10;;;;;;;1.93;50.84;99321.50;5092093;28;20113;-58
2023/03/06 00:44:32;;;;;;;7.25;2.33;;;;;;;1.66;52.00;99324.19;5093426;28;20032;-58
2023/03/06 00:46:58;;;;;;;6.75;2.22;;;;;;;1.69;51.72;99329.38;5092018;28;20036;-58
2023/03/06 00:49:23;;;;;;;6.03;1.80;;;;;;;1.62;51.93;99325.91;5092204;28;20039;-58
2023/03/06 00:51:48;;;;;;;5.03;1.98;;;;;;;1.78;51.59;99318.97;5093410;28;20039;-58
2023/03/06 00:54:14;;;;;;;8.57;2.67;;;;;;;1.80;51.61;99321.56;5075161;28;20556;-58
2023/03/06 00:56:39;;;;;;;6.90;2.08;;;;;;;1.82;51.27;99323.28;5093179;28;20032;-58
2023/03/06 00:59:05;;;;;;;8.30;2.63;;;;;;;1.61;52.32;99312.97;5093585;28;20043;-58
2023/03/06 01:01:30;;;;;;;5.20;2.30;;;;;;;1.84;51.49;99320.69;5075304;28;20033;-57
2023/03/06 01:03:56;;;;;;;5.35;2.47;;;;;;;1.80;51.61;99318.97;5093378;28;20097;-58
2023/03/06 01:06:22;;;;;;;5.78;2.22;;;;;;;1.80;51.46;99314.66;5093307;28;20090;-58
2023/03/06 01:08:47;;;;;;;6.13;2.30;;;;;;;1.84;51.26;99315.50;5093199;28;20123;-57
2023/03/06 01:11:12;;;;;;;6.05;2.28;;;;;;;1.66;52.02;99308.66;5093105;28;20036;-57
2023/03/06 01:13:38;;;;;;;5.18;2.47;;;;;;;1.78;51.48;99318.09;5093056;28;20047;-57
2023/03/06 01:16:09;;;;;;;8.27;2.30;;;;;;;1.64;52.07;99316.44;5075967;28;20035;-57
2023/03/06 01:18:35;;;;;;;6.35;2.38;;;;;;;1.61;52.20;99308.66;5097064;28;20032;-58
2023/03/06 01:21:01;;;;;;;6.35;2.25;;;;;;;1.51;52.71;99308.69;5096835;28;20068;-58
2023/03/06 01:23:27;;;;;;;7.78;3.03;;;;;;;1.54;52.34;99306.09;5096882;28;20036;-59
2023/03/06 01:25:52;;;;;;;6.78;2.40;;;;;;;1.25;53.23;99311.31;5096955;28;20036;-58
2023/03/06 01:28:18;;;;;;;8.02;3.03;;;;;;;1.59;52.02;99307.78;5095876;28;20379;-59
2023/03/06 01:30:43;;;;;;;5.93;2.42;;;;;;;1.55;52.42;99303.47;5096859;28;20032;-59
2023/03/06 01:33:08;;;;;;;7.28;2.70;;;;;;;1.53;51.94;99305.22;5095493;28;20101;-59
2023/03/06 01:35:34;;;;;;;6.00;2.25;;;;;;;1.51;52.06;99301.78;5096830;28;20040;-59
2023/03/06 01:37:59;;;;;;;5.22;2.60;;;;;;;1.64;51.79;99300.91;5096728;28;20043;-58
2023/03/06 01:40:25;;;;;;;6.97;2.25;;;;;;;1.62;51.86;99304.34;5096276;28;20048;-58
2023/03/06 01:42:50;;;;;;;6.03;2.50;;;;;;;1.63;52.01;99299.16;5095574;28;20028;-59
2023/03/06 01:45:15;;;;;;;5.68;2.70;;;;;;;1.59;51.73;99292.25;5096942;28;20032;-57
2023/03/06 01:47:41;;;;;;;5.97;2.42;;;;;;;1.51;52.30;99301.78;5096477;28;20030;-58
2023/03/06 01:50:09;;;;;;;4.65;2.10;;;;;;;1.59;51.75;99289.66;5096770;28;20035;-58
2023/03/06 01:52:57;;;;;;;4.60;2.00;;;;;;;1.69;52.00;99291.38;5096552;28;20036;-59
2023/03/06 01:55:32;;;;;;;6.40;2.72;;;;;;;1.63;51.86;99288.78;5096245;28;20032;-58
2023/03/06 01:58:02;;;;;;;6.72;2.58;;;;;;;1.51;51.88;99286.22;5096277;28;20080;-58
2023/03/06 02:00:29;;;;;;;4.25;2.05;;;;;;;1.69;51.47;99287.94;5096464;28;20027;-58
2023/03/06 02:03:13;;;;;;;5.80;2.70;;;;;;;1.45;52.84;99286.25;5096222;28;20039;-58
2023/03/06 02:05:40;;;;;;;6.63;2.72;;;;;;;1.44;52.10;99279.38;5095042;28;20032;-57
2023/03/06 02:08:08;;;;;;;6.53;2.60;;;;;;;1.49;51.89;99277.63;5096262;28;20467;-59
2023/03/06 02:10:34;;;;;;;6.22;2.28;;;;;;;1.52;52.07;99280.22;5094669;28;20566;-59
2023/03/06 02:13:00;;;;;;;4.45;2.33;;;;;;;1.51;52.25;99272.44;5096003;28;20056;-59
2023/03/06 02:15:28;;;;;;;5.13;2.10;;;;;;;1.45;52.16;99265.56;5095897;28;20107;-59
2023/03/06 02:17:54;;;;;;;6.32;2.38;;;;;;;1.47;52.24;99269.00;5095915;28;20028;-59
2023/03/06 02:20:30;;;;;;;7.18;2.50;;;;;;;1.46;52.41;99269.88;5094340;28;20032;-59
2023/03/06 02:23:21;;;;;;;5.50;2.40;;;;;;;1.50;52.39;99271.56;5095982;28;20028;-59
2023/03/06 02:25:50;;;;;;;4.32;1.85;;;;;;;1.50;52.23;99269.00;5095743;28;20548;-59
2023/03/06 02:28:19;;;;;;;6.13;2.22;;;;;;;1.60;51.60;99278.47;5095276;28;20024;-58
2023/03/06 02:30:47;;;;;;;5.47;2.33;;;;;;;1.63;51.90;99282.75;5094530;28;20028;-59
2023/03/06 02:33:15;;;;;;;6.07;2.25;;;;;;;1.50;51.97;99265.53;5095890;28;20079;-59
2023/03/06 02:35:48;;;;;;;5.80;1.95;;;;;;;1.42;52.51;99265.56;5094332;28;20059;-58
2023/03/06 02:38:16;;;;;;;6.32;2.20;;;;;;;1.44;52.23;99266.44;5095254;28;20039;-58
2023/03/06 02:40:45;;;;;;;5.30;2.08;;;;;;;1.52;51.99;99258.63;5095314;28;20039;-58
2023/03/06 02:43:14;;;;;;;8.25;2.03;;;;;;;1.52;51.99;99266.38;5095498;28;20031;-58
2023/03/06 02:45:45;;;;;;;7.55;3.25;;;;;;;1.47;52.12;99263.81;5095541;28;20038;-58
2023/03/06 02:48:13;;;;;;;5.25;2.63;;;;;;;1.56;51.74;99268.13;5095683;28;20055;-58
2023/03/06 02:50:40;;;;;;;4.68;2.08;;;;;;;1.51;52.18;99257.75;5095345;28;20077;-59
2023/03/06 02:53:08;;;;;;;5.80;2.70;;;;;;;1.54;51.94;99252.56;5095340;28;20031;-59
2023/03/06 02:55:34;;;;;;;6.75;3.20;;;;;;;1.50;51.90;99257.78;5094995;28;20038;-59
2023/03/06 02:58:00;;;;;;;7.35;3.25;;;;;;;1.48;52.29;99252.63;5093876;28;20491;-59
2023/03/06 03:00:26;;;;;;;8.98;3.00;;;;;;;1.49;52.30;99256.91;5095129;28;20028;-59
2023/03/06 03:02:52;;;;;;;6.15;2.63;;;;;;;1.47;52.42;99256.91;5095226;28;20039;-59
2023/03/06 03:05:18;;;;;;;8.18;2.80;;;;;;;1.46;52.24;99257.78;5095433;28;20028;-59
2023/03/06 03:07:44;;;;;;;8.68;3.05;;;;;;;1.46;52.55;99249.16;5095238;28;20042;-59
2023/03/06 03:10:10;;;;;;;7.60;2.72;;;;;;;1.38;52.65;99253.50;5095130;28;20075;-59
2023/03/06 03:12:36;;;;;;;9.77;3.08;;;;;;;1.45;52.53;99247.44;5095019;28;20032;-59
2023/03/06 03:15:01;;;;;;;9.93;2.67;;;;;;;1.48;52.25;99250.03;5094887;28;20032;-59
2023/03/06 03:17:27;;;;;;;8.77;3.17;;;;;;;1.33;52.89;99250.06;5094776;28;20398;-59
2023/03/06 03:19:52;;;;;;;6.20;2.90;;;;;;;1.38;52.58;99238.81;5094621;28;20157;-59
2023/03/06 03:22:19;;;;;;;8.18;2.53;;;;;;;1.44;52.41;99248.31;5094570;28;20032;-59
2023/03/06 03:24:45;;;;;;;4.30;2.10;;;;;;;1.37;52.63;99242.28;5094520;28;20035;-59
2023/03/06 03:27:10;;;;;;;4.75;2.33;;;;;;;1.44;52.44;99243.13;5094481;28;20183;-59
2023/03/06 03:29:36;;;;;;;3.55;1.85;;;;;;;1.50;52.44;99245.69;5095229;28;20482;-59
2023/03/06 03:32:02;;;;;;;5.55;2.33;;;;;;;1.49;52.54;99246.56;5097446;28;20130;-58
2023/03/06 03:34:27;;;;;;;5.57;2.10;;;;;;;1.40;52.69;99244.00;5095316;28;20042;-59
2023/03/06 03:36:53;;;;;;;8.52;3.20;;;;;;;1.29;52.74;99244.03;5093412;28;20085;-59
2023/03/06 03:39:18;;;;;;;7.78;2.75;;;;;;;1.43;52.81;99238.81;5092858;28;20475;-59
2023/03/06 03:41:44;;;;;;;9.73;3.65;;;;;;;1.44;52.90;99243.13;5094677;28;20028;-59
2023/03/06 03:44:10;;;;;;;7.25;3.47;;;;;;;1.47;52.80;99246.53;5094389;28;20031;-58
2023/03/06 03:46:35;;;;;;;16.67;6.60;;;;;;;1.42;52.87;99237.09;5094256;28;20040;-58
2023/03/06 03:49:01;;;;;;;8.20;3.85;;;;;;;1.45;52.81;99247.44;5094194;28;20028;-59
2023/03/06 03:51:26;;;;;;;9.73;3.63;;;;;;;1.42;53.17;99239.69;5094145;28;20467;-58
2023/03/06 03:53:52;;;;;;;8.60;3.60;;;;;;;1.30;53.17;99229.34;5092657;28;20083;-58
2023/03/06 03:56:18;;;;;;;6.65;3.03;;;;;;;1.23;53.47;99242.28;5094201;28;20039;-58
2023/03/06 03:58:43;;;;;;;5.72;2.50;;;;;;;1.28;53.13;99236.25;5092815;28;20488;-59
2023/03/06 04:01:09;;;;;;;7.75;2.90;;;;;;;1.38;52.79;99235.38;5093943;28;20387;-58
2023/03/06 04:03:34;;;;;;;6.10;2.85;;;;;;;1.04;54.32;99234.56;5094036;28;20468;-58
2023/03/06 04:06:01;;;;;;;5.35;2.50;;;;;;;1.33;53.01;99231.94;5092663;28;20027;-59
2023/03/06 04:08:26;;;;;;;6.95;2.80;;;;;;;1.40;52.80;99238.84;5093740;28;20103;-58
2023/03/06 04:10:53;;;;;;;4.38;2.30;;;;;;;1.22;53.66;99232.81;5093909;28;20511;-59
2023/03/06 04:13:20;;;;;;;8.50;2.70;;;;;;;1.40;52.97;99236.25;5094020;28;20047;-59
2023/03/06 04:15:51;;;;;;;7.57;2.53;;;;;;;1.37;53.31;99231.94;5092482;28;20032;-59
2023/03/06 04:18:16;;;;;;;5.20;2.42;;;;;;;1.37;53.17;99225.91;5105345;28;20043;-59
2023/03/06 04:20:43;;;;;;;5.78;2.63;;;;;;;1.31;53.04;99231.06;5100196;28;20123;-59
2023/03/06 04:23:09;;;;;;;6.13;2.40;;;;;;;1.36;53.19;99226.78;5107586;28;20075;-58
2023/03/06 04:25:34;;;;;;;5.20;2.47;;;;;;;1.35;53.13;99225.03;5098433;28;20020;-58
2023/03/06 04:28:00;;;;;;;5.38;2.78;;;;;;;1.19;53.60;99230.22;5093737;28;20375;-58
2023/03/06 04:30:26;;;;;;;3.47;2.10;;;;;;;1.13;53.87;99229.41;5093840;28;20035;-59
2023/03/06 04:32:51;;;;;;;5.63;2.20;;;;;;;0.83;54.75;99227.69;5092338;28;20040;-59
2023/03/06 04:35:17;;;;;;;5.40;1.85;;;;;;;1.10;53.92;99227.66;5092140;28;20080;-59
2023/03/06 04:37:43;;;;;;;5.03;2.80;;;;;;;0.98;54.11;99227.69;5093331;28;20032;-59
2023/03/06 04:40:29;;;;;;;4.97;2.20;;;;;;;1.03;54.35;99231.13;5092334;28;20091;-59
2023/03/06 04:42:56;;;;;;;5.15;2.22;;;;;;;1.11;53.75;99229.38;5093547;28;20033;-59
2023/03/06 04:45:22;;;;;;;4.68;2.47;;;;;;;1.14;53.53;99229.38;5093580;28;20077;-58
2023/03/06 04:47:47;;;;;;;6.65;2.83;;;;;;;1.22;53.03;99227.66;5093324;28;20036;-59
2023/03/06 04:50:13;;;;;;;9.35;2.88;;;;;;;1.26;53.11;99222.47;5096667;28;20391;-58
2023/03/06 04:52:39;;;;;;;9.80;3.67;;;;;;;1.25;53.17;99224.19;5099647;28;20437;-58
2023/03/06 04:55:07;;;;;;;8.60;3.50;;;;;;;1.17;53.60;99224.22;5099643;28;20063;-59
2023/03/06 04:57:38;;;;;;;6.30;3.42;;;;;;;1.19;53.65;99221.59;5116771;28;20062;-59
2023/03/06 05:00:07;;;;;;;8.35;3.30;;;;;;;1.20;53.51;99229.38;5104504;28;20039;-59
2023/03/06 05:02:33;;;;;;;7.35;3.35;;;;;;;1.10;53.86;99217.31;5117644;28;20102;-59
2023/03/06 05:04:58;;;;;;;9.13;3.83;;;;;;;1.17;53.42;99224.22;5115894;28;20139;-59
2023/03/06 05:07:24;;;;;;;8.07;3.97;;;;;;;1.07;54.09;99230.25;5117745;28;20454;-59
2023/03/06 05:09:49;;;;;;;11.93;4.40;;;;;;;0.89;54.29;99228.56;5117704;28;20035;-59
2023/03/06 05:12:15;;;;;;;15.52;4.80;;;;;;;0.91;54.20;99226.81;5107037;28;20040;-59
2023/03/06 05:14:40;;;;;;;7.72;3.80;;;;;;;0.98;53.71;99217.34;5097073;28;20036;-59
2023/03/06 05:17:06;;;;;;;8.20;3.60;;;;;;;0.97;54.13;99223.38;5098173;28;20063;-59
2023/03/06 05:19:31;;;;;;;8.98;3.95;;;;;;;0.97;54.20;99228.56;5098398;28;20459;-58
2023/03/06 05:21:57;;;;;;;5.32;3.30;;;;;;;0.97;53.97;99225.97;5109734;28;20123;-58
2023/03/06 05:24:22;;;;;;;10.30;3.70;;;;;;;1.12;53.45;99225.09;5109879;28;20039;-60
2023/03/06 05:26:47;;;;;;;9.02;4.15;;;;;;;1.00;54.03;99220.81;5103897;28;20118;-58
2023/03/06 05:29:13;;;;;;;9.30;4.30;;;;;;;1.07;53.54;99219.91;5117097;27;20038;-58
2023/03/06 05:31:38;;;;;;;7.95;3.97;;;;;;;1.03;54.00;99220.78;5107367;28;20042;-58
2023/03/06 05:34:04;;;;;;;13.88;4.20;;;;;;;1.09;53.76;99220.78;5106134;28;20032;-59
2023/03/06 05:36:29;;;;;;;9.95;3.83;;;;;;;1.19;53.34;99221.59;5114949;28;20027;-58
2023/03/06 05:38:55;;;;;;;8.13;4.13;;;;;;;1.25;53.13;99226.78;5105710;28;20070;-57
2023/03/06 05:41:20;;;;;;;8.18;4.13;;;;;;;1.21;53.66;99220.75;5097063;28;20036;-59
2023/03/06 05:43:46;;;;;;;9.38;4.10;;;;;;;1.10;53.99;99227.66;5101176;28;20051;-58
2023/03/06 05:46:11;;;;;;;9.75;4.18;;;;;;;1.12;53.65;99225.97;5102997;28;20058;-58
2023/03/06 05:48:37;;;;;;;10.32;3.75;;;;;;;1.25;53.58;99226.78;5098017;28;20035;-59
2023/03/06 05:51:03;;;;;;;10.73;4.07;;;;;;;1.23;53.76;99229.34;5100023;28;20032;-59
2023/03/06 05:53:29;;;;;;;8.07;3.45;;;;;;;1.35;53.26;99225.03;5108748;28;20039;-58
2023/03/06 05:56:04;;;;;;;8.07;4.00;;;;;;;1.30;53.77;99224.19;5108520;28;20040;-58
2023/03/06 05:58:31;;;;;;;7.40;3.13;;;;;;;1.32;53.64;99230.22;5106202;28;20028;-58
2023/03/06 06:00:56;;;;;;;5.85;2.80;;;;;;;1.39;53.12;99231.91;5112254;28;20036;-58
2023/03/06 06:03:22;;;;;;;8.32;3.22;;;;;;;1.52;52.87;99232.72;5108244;28;20111;-58
2023/03/06 06:05:48;;;;;;;7.47;3.28;;;;;;;1.59;52.73;99229.25;5109108;28;20058;-58
2023/03/06 06:08:13;;;;;;;6.68;3.40;;;;;;;1.61;52.76;99220.63;5112611;28;20118;-59
2023/03/06 06:10:39;;;;;;;8.35;3.42;;;;;;;1.75;52.38;99230.91;5109966;28;20454;-59
2023/03/06 06:13:05;;;;;;;13.10;3.85;;;;;;;1.77;52.70;99234.38;5101476;28;20035;-58
2023/03/06 06:15:30;;;;;;;7.10;3.60;;;;;;;1.81;52.50;99235.22;5116270;28;20513;-59
2023/03/06 06:17:56;;;;;;;8.23;3.63;;;;;;;2.02;51.96;99232.50;5102953;28;20093;-58
2023/03/06 06:20:23;;;;;;;9.52;3.92;;;;;;;2.03;51.76;99233.38;5101369;28;20501;-59
2023/03/06 06:22:48;;;;;;;9.80;3.55;;;;;;;2.15;51.85;99226.38;5099310;28;20468;-59
2023/03/06 06:25:14;;;;;;;8.70;3.75;;;;;;;2.38;51.11;99230.56;5110570;28;20088;-59
2023/03/06 06:27:40;;;;;;;9.05;3.67;;;;;;;2.38;51.25;99231.44;5100711;28;20463;-58
2023/03/06 06:30:06;;;;;;;8.32;3.35;;;;;;;2.47;51.02;99222.72;5095883;28;20463;-59
2023/03/06 06:32:32;;;;;;;6.45;3.30;;;;;;;2.69;50.53;99241.59;5101106;28;20047;-58
2023/03/06 06:34:58;;;;;;;11.18;4.10;;;;;;;2.75;50.74;99230.28;5109880;28;20039;-58
2023/03/06 06:37:24;;;;;;;11.07;3.72;;;;;;;2.92;50.34;99234.47;5088778;28;20032;-58
2023/03/06 06:39:50;;;;;;;8.82;3.78;;;;;;;3.06;49.97;99233.47;5095226;28;20071;-58
2023/03/06 06:42:16;;;;;;;8.25;3.95;;;;;;;3.12;49.80;99231.69;5110047;28;20463;-58
2023/03/06 06:44:41;;;;;;;10.15;4.03;;;;;;;3.09;49.82;99236.03;5115854;28;20039;-58
2023/03/06 06:47:07;;;;;;;8.40;3.90;;;;;;;3.16;49.66;99241.16;5115916;28;20035;-58
2023/03/06 06:49:33;;;;;;;8.73;4.78;;;;;;;2.88;50.01;99248.34;5115839;28;20055;-57
2023/03/06 06:51:59;;;;;;;9.32;4.15;;;;;;;3.04;49.51;99237.84;5114507;28;20520;-57
2023/03/06 06:54:24;;;;;;;9.80;4.13;;;;;;;2.88;50.04;99245.75;5115861;27;20027;-58
2023/03/06 06:56:50;;;;;;;7.60;3.85;;;;;;;2.93;49.96;99238.78;5115586;28;20032;-57
2023/03/06 06:59:15;;;;;;;9.43;4.28;;;;;;;2.58;50.44;99244.25;5115623;28;20035;-57
2023/03/06 07:01:41;;;;;;;10.80;3.83;;;;;;;2.69;50.49;99247.63;5115738;28;20106;-57
2023/03/06 07:04:06;;;;;;;10.20;4.40;;;;;;;2.75;50.32;99240.66;5115626;28;20450;-57
2023/03/06 07:06:32;;;;;;;10.00;4.70;;;;;;;2.92;50.27;99244.00;5114301;28;20091;-58
2023/03/06 07:08:57;;;;;;;11.35;4.68;;;;;;;3.17;49.79;99235.09;5106031;28;20044;-57
2023/03/06 07:11:23;;;;;;;7.90;4.32;;;;;;;3.41;49.43;99239.16;5113674;28;20061;-57
2023/03/06 07:13:48;;;;;;;9.07;4.07;;;;;;;3.60;49.01;99236.38;5114022;28;20031;-56
2023/03/06 07:16:16;;;;;;;9.95;4.40;;;;;;;3.70;48.62;99238.81;5115400;28;20473;-56
2023/03/06 07:18:41;;;;;;;12.38;4.40;;;;;;;3.74;48.62;99231.84;5115012;28;20043;-57
2023/03/06 07:21:08;;;;;;;9.50;4.40;;;;;;;3.79;48.60;99231.78;5113817;28;20032;-57
2023/03/06 07:23:33;;;;;;;8.77;4.20;;;;;;;4.05;48.17;99227.13;5115069;28;20032;-58
2023/03/06 07:25:59;;;;;;;9.02;4.40;;;;;;;4.14;47.95;99237.38;5114923;28;20374;-57
2023/03/06 07:28:25;;;;;;;11.45;4.78;;;;;;;4.00;48.15;99241.94;5114742;28;20032;-58
2023/03/06 07:30:50;;;;;;;10.57;4.32;;;;;;;4.13;47.87;99240.03;5114980;28;20569;-58
2023/03/06 07:33:16;;;;;;;10.88;4.00;;;;;;;4.35;47.46;99237.97;5115040;28;20122;-58
2023/03/06 07:35:47;;;;;;;10.98;3.85;;;;;;;4.55;47.18;99243.75;5102412;27;1517110;-57
2023/03/06 07:38:13;;;;;;;11.00;4.60;;;;;;;4.90;46.63;99239.72;5132064;28;20470;-57
2023/03/06 07:40:39;;;;;;;11.00;4.07;;;;;;;5.14;46.19;99244.47;5130669;28;20039;-58
2023/03/06 07:43:05;;;;;;;8.10;4.00;;;;;;;5.44;45.60;99247.44;5131887;27;20035;-57
2023/03/06 07:45:31;;;;;;;13.68;5.00;;;;;;;5.79;45.00;99238.09;5131953;27;20042;-57
2023/03/06 07:47:56;;;;;;;12.23;4.70;;;;;;;6.10;44.47;99240.91;5130508;28;20028;-58
2023/03/06 07:50:21;;;;;;;10.50;4.20;;;;;;;5.96;44.47;99246.44;5130369;28;20481;-58
2023/03/06 07:52:48;;;;;;;11.00;4.50;;;;;;;5.92;44.85;99250.00;5131454;27;20039;-58
2023/03/06 07:55:13;;;;;;;14.18;4.50;;;;;;;5.91;44.50;99250.88;5116772;27;20036;-58
2023/03/06 07:57:40;;;;;;;12.60;4.20;;;;;;;5.97;44.52;99248.13;5131027;28;20482;-57
2023/03/06 08:00:09;;;;;;;9.02;3.80;;;;;;;5.89;44.65;99248.25;5124191;27;20031;-58
2023/03/06 08:02:35;;;;;;;9.30;3.50;;;;;;;6.02;44.37;99250.66;5110854;28;20028;-59
2023/03/06 08:05:00;;;;;;;8.23;3.42;;;;;;;6.12;44.46;99244.34;5115922;28;20054;-58
2023/03/06 08:07:28;;;;;;;7.85;3.13;;;;;;;6.12;43.97;99253.03;5130622;27;20042;-59
2023/03/06 08:09:53;;;;;;;6.97;3.03;;;;;;;6.36;43.81;99248.19;5131063;27;20031;-58
2023/03/06 08:12:18;;;;;;;6.00;3.08;;;;;;;6.54;43.64;99242.56;5131358;28;20049;-57
2023/03/06 08:14:44;;;;;;;9.30;3.08;;;;;;;6.59;43.52;99245.91;5130014;28;20028;-57
2023/03/06 08:17:09;;;;;;;6.18;2.60;;;;;;;6.65;43.32;99244.88;5131287;28;20031;-58
2023/03/06 08:19:35;;;;;;;7.72;2.60;;;;;;;6.86;43.14;99241.78;5131175;28;20031;-58
2023/03/06 08:22:00;;;;;;;9.13;4.05;;;;;;;6.90;42.93;99246.03;5118385;28;20047;-58
2023/03/06 08:24:26;;;;;;;7.30;2.97;;;;;;;7.05;42.76;99236.94;5109171;28;20031;-58
2023/03/06 08:26:51;;;;;;;6.57;2.60;;;;;;;6.99;42.70;99236.25;5110218;28;20040;-58
2023/03/06 08:29:16;;;;;;;5.03;2.38;;;;;;;7.06;42.58;99240.38;5110471;28;20120;-58
2023/03/06 08:31:43;;;;;;;7.65;2.30;;;;;;;7.30;42.16;99231.94;5110470;28;20232;-57
2023/03/06 08:34:17;;;;;;;5.38;2.20;;;;;;;7.37;41.87;99232.63;5110458;28;20071;-58
2023/03/06 08:36:42;;;;;;;12.15;3.17;;;;;;;7.16;41.78;99229.69;5110260;28;20031;-58
2023/03/06 08:39:08;;;;;;;5.65;2.65;;;;;;;7.26;42.04;99234.66;5108941;28;20451;-59
2023/03/06 08:41:35;;;;;;;6.63;2.60;;;;;;;7.16;41.68;99234.06;5110414;28;20038;-58
2023/03/06 08:44:00;;;;;;;7.65;2.38;;;;;;;7.07;41.58;99232.53;5110083;28;20060;-58
2023/03/06 08:46:28;;;;;;;6.20;3.00;;;;;;;7.25;41.63;99232.94;5099660;28;20063;-59
2023/03/06 08:48:53;;;;;;;8.45;3.38;;;;;;;7.11;41.48;99236.78;5096357;28;20032;-58
2023/03/06 08:51:20;;;;;;;5.55;2.35;;;;;;;7.28;41.28;99238.94;5096253;28;20032;-57
2023/03/06 08:53:45;;;;;;;5.57;2.50;;;;;;;7.16;40.87;99237.53;5094882;28;20035;-58
2023/03/06 08:56:28;;;;;;;5.55;2.13;;;;;;;7.48;40.54;99232.34;5096433;28;20451;-58
2023/03/06 08:58:54;;;;;;;7.13;2.27;;;;;;;7.57;40.58;99237.31;5096347;28;20059;-59
2023/03/06 09:01:25;;;;;;;5.53;2.15;;;;;;;7.71;40.03;99227.34;5096154;28;20750;-58
2023/03/06 09:03:53;;;;;;;3.67;1.42;;;;;;;7.65;39.58;99233.56;5096171;28;20513;-58
2023/03/06 09:06:19;;;;;;;5.50;2.00;;;;;;;7.61;39.35;99221.50;5096014;28;20031;-58
2023/03/06 09:08:44;;;;;;;3.60;1.30;;;;;;;7.20;39.01;99234.84;5096256;28;20024;-58
2023/03/06 09:11:11;;;;;;;3.03;1.08;;;;;;;7.28;38.73;99225.88;5096108;28;20032;-58
2023/03/06 09:13:37;;;;;;;3.33;1.13;;;;;;;7.33;38.52;99223.16;5095606;28;20369;-59
2023/03/06 09:16:03;;;;;;;2.45;0.90;;;;;;;7.45;38.06;99225.44;5128569;27;20093;-58
2023/03/06 09:18:28;;;;;;;3.53;0.90;;;;;;;7.73;37.30;99228.13;5095846;28;20085;-59
2023/03/06 09:20:55;;;;;;;1.58;0.90;;;;;;;7.98;37.77;99225.69;5094368;28;20028;-58
2023/03/06 09:23:20;;;;;;;2.83;1.00;;;;;;;8.10;37.13;99225.31;5094810;28;20032;-58
2023/03/06 09:25:54;;;;;;;1.52;0.50;;;;;;;8.41;35.66;99219.16;5095959;28;20117;-59
2023/03/06 09:28:19;;;;;;;2.42;0.90;;;;;;;8.66;36.62;99219.25;5095578;28;20057;-58
2023/03/06 09:30:45;;;;;;;3.40;1.35;;;;;;;8.76;36.00;99225.03;5095300;28;20031;-59
2023/03/06 09:33:10;;;;;;;3.58;1.05;;;;;;;8.86;35.39;99210.75;5095686;28;20105;-59
2023/03/06 09:35:48;;;;;;;3.30;1.20;;;;;;;9.15;35.35;99220.25;5094958;28;20085;-59
2023/03/06 09:38:13;;;;;;;6.38;1.98;;;;;;;9.13;35.30;99207.19;5095458;28;20391;-59
2023/03/06 09:40:54;;;;;;;2.83;1.15;;;;;;;9.35;34.73;99219.56;5095432;28;20028;-58
2023/03/06 09:43:38;;;;;;;3.17;1.45;;;;;;;9.64;34.08;99205.41;5095383;28;20392;-58
2023/03/06 09:46:35;;;;;;;2.67;1.00;;;;;;;9.24;32.87;99217.31;5095324;28;20046;-59
2023/03/06 09:49:09;;;;;;;4.03;1.17;;;;;;;9.10;34.69;99215.16;5095056;28;20089;-59
2023/03/06 09:51:49;;;;;;;3.50;1.30;;;;;;;9.58;33.76;99211.72;5095051;28;20077;-58
2023/03/06 09:54:15;;;;;;;4.97;1.80;;;;;;;9.95;34.25;99220.00;5094952;28;20036;-58
2023/03/06 09:56:49;;;;;;;5.78;1.50;;;;;;;10.05;32.23;99213.50;5093450;28;20241;-58
2023/03/06 09:59:23;;;;;;;1.98;0.90;;;;;;;9.63;31.34;99224.69;5094491;28;20387;-58
2023/03/06 10:02:19;;;;;;;4.03;0.73;;;;;;;9.93;31.44;99222.69;5095032;28;20032;-59
2023/03/06 10:04:58;;;;;;;3.88;1.10;;;;;;;9.79;32.40;99219.72;5093459;28;20036;-59
2023/03/06 10:07:59;;;;;;;2.42;0.90;;;;;;;10.06;30.32;99217.84;5095105;28;20085;-57
2023/03/06 10:10:39;;;;;;;2.92;0.80;;;;;;;10.06;31.38;99213.44;5095053;28;20039;-59
2023/03/06 10:13:18;;;;;;;4.03;1.23;;;;;;;10.15;31.49;99220.13;5094723;28;20463;-59
2023/03/06 10:15:46;;;;;;;2.58;0.80;;;;;;;10.39;31.98;99210.47;5093620;28;20039;-58
2023/03/06 10:18:12;;;;;;;3.97;1.63;;;;;;;10.67;32.10;99214.63;5093441;28;20043;-59
2023/03/06 10:20:52;;;;;;;3.13;1.23;;;;;;;10.58;30.75;99215.84;5093424;28;20039;-58
2023/03/06 10:23:41;;;;;;;2.38;1.05;;;;;;;10.94;30.93;99202.97;5083900;28;20032;-58
2023/03/06 10:26:14;;;;;;;4.35;1.48;;;;;;;10.96;31.48;99209.00;5094291;28;20131;-58
2023/03/06 10:29:03;;;;;;;;;;;;;;;11.17;28.81;99202.00;5093859;28;20035;-58
2023/03/06 10:31:28;;;;;;;3.58;1.25;;;;;;;10.94;29.00;99208.22;5094287;28;19915;-58
2023/03/06 10:34:03;;;;;;;5.40;1.23;;;;;;;11.04;29.30;99201.66;5093897;28;20040;-58
2023/03/06 10:36:29;;;;;;;5.20;1.10;;;;;;;11.31;30.45;99211.94;5094415;28;20105;-58
2023/03/06 10:38:57;;;;;;;2.97;1.10;;;;;;;11.37;29.46;99214.31;5093092;28;20119;-58
2023/03/06 10:41:28;;;;;;;4.40;1.05;;;;;;;11.37;29.45;99208.16;5092994;28;20535;-58
2023/03/06 10:43:59;;;;;;;1.90;0.95;;;;;;;11.38;29.63;99213.38;5093688;28;20520;-58
2023/03/06 10:46:33;;;;;;;5.15;2.13;;;;;;;10.97;28.55;99201.97;5090671;28;20551;-58
2023/03/06 10:49:23;;;;;;;3.50;1.30;;;;;;;11.30;27.87;99205.81;5092163;28;20063;-58
2023/03/06 10:52:13;;;;;;;2.25;0.80;;;;;;;11.13;26.83;99197.81;5092146;28;20062;-58
2023/03/06 10:54:42;;;;;;;1.92;0.60;;;;;;;11.38;29.59;99194.13;5091683;28;20031;-58
2023/03/06 10:57:29;;;;;;;4.28;1.30;;;;;;;11.62;26.82;99189.56;5090682;28;20028;-58
2023/03/06 10:59:57;;;;;;;3.65;1.50;;;;;;;11.45;29.36;99198.16;5092470;28;20526;-58
2023/03/06 11:02:27;;;;;;;3.60;1.83;;;;;;;11.51;28.67;99188.22;5092641;28;20093;-59
2023/03/06 11:04:54;;;;;;;2.97;1.20;;;;;;;11.47;29.18;99197.19;5093941;28;20028;-59
2023/03/06 11:07:22;;;;;;;2.50;1.13;;;;;;;11.25;29.42;99188.50;5093768;28;20042;-58
2023/03/06 11:09:56;;;;;;;3.58;1.17;;;;;;;11.50;28.20;99183.91;5093779;28;20028;-58
2023/03/06 11:12:34;;;;;;;7.93;1.77;;;;;;;11.68;27.45;99189.25;5094217;28;20032;-59
2023/03/06 11:15:09;;;;;;;6.40;1.38;;;;;;;11.95;27.67;99179.28;5093655;28;20037;-57
2023/03/06 11:17:56;;;;;;;3.33;1.20;;;;;;;11.81;27.14;99175.50;5093533;28;20455;-59
2023/03/06 11:20:22;;;;;;;4.57;1.45;;;;;;;11.46;29.12;99177.06;5093712;28;20028;-59
2023/03/06 11:22:49;;;;;;;4.68;1.42;;;;;;;11.48;29.23;99174.38;5093522;28;20038;-59
2023/03/06 11:25:19;;;;;;;2.72;1.00;;;;;;;11.59;27.98;99180.00;5093668;28;20451;-59
2023/03/06 11:27:54;;;;;;;2.85;1.00;;;;;;;12.05;28.42;99170.91;5093604;28;20054;-58
2023/03/06 11:30:29;;;;;;;3.55;1.30;;;;;;;12.23;27.59;99176.22;5092124;28;20056;-58
2023/03/06 11:33:00;;;;;;;2.42;0.93;;;;;;;12.42;28.02;99174.41;5093631;28;20024;-58
2023/03/06 11:35:38;;;;;;;6.35;0.93;;;;;;;12.62;27.48;99173.44;5093380;28;20083;-59
2023/03/06 11:38:24;;;;;;;5.53;1.77;;;;;;;12.41;25.98;99179.75;5093460;28;20089;-59
2023/03/06 11:40:57;;;;;;;8.38;2.00;;;;;;;12.14;27.44;99171.41;5093772;28;20048;-59
2023/03/06 11:44:19;;;;;;;3.85;1.67;;;;;;;11.99;26.61;99168.53;5092328;28;20157;-59